sensor_id;sensor_type;location;lat;lon;timestamp;pressure;altitude;pressure_sealevel;temperature;humidity
20889;BME280;10604;51.976;7.594;2022-12-10T00:01:43;100024.09;;;14.25;38.49
20889;BME280;10604;51.976;7.594;2022-12-10T00:04:09;100028.19;;;14.15;38.44
20889;BME280;10604;51.976;7.594;2022-12-10T00:06:36;100019.88;;;14.21;39.05
20889;BME280;10604;51.976;7.594;2022-12-10T00:09:03;100029.75;;;14.19;38.25
20889;BME280;10604;51.976;7.594;2022-12-10T00:11:29;100036.44;;;14.26;38.14
20889;BME280;10604;51.976;7.594;2022-12-10T00:13:55;100032.84;;;14.27;38.71
20889;BME280;10604;51.976;7.594;2022-12-10T00:16:23;100031.88;;;14.28;38.29
20889;BME280;10604;51.976;7.594;2022-12-10T00:18:49;100035.81;;;14.21;38.57
20889;BME280;10604;51.976;7.594;2022-12-10T00:21:21;100040.94;;;14.24;38.81
20889;BME280;10604;51.976;7.594;2022-12-10T00:23:47;100034.03;;;14.06;38.92
20889;BME280;10604;51.976;7.594;2022-12-10T00:26:14;100044.81;;;14.34;38.78
20889;BME280;10604;51.976;7.594;2022-12-10T00:28:41;100046.84;;;14.29;37.89
20889;BME280;10604;51.976;7.594;2022-12-10T00:31:10;100046.19;;;14.26;38.41
20889;BME280;10604;51.976;7.594;2022-12-10T00:33:36;100045.47;;;14.22;37.82
20889;BME280;10604;51.976;7.594;2022-12-10T00:36:16;100050.28;;;14.31;38.42
20889;BME280;10604;51.976;7.594;2022-12-10T00:38:43;100052.56;;;14.37;37.81
20889;BME280;10604;51.976;7.594;2022-12-10T00:41:09;100048.06;;;14.24;36.46
20889;BME280;10604;51.976;7.594;2022-12-10T00:43:34;100043.25;;;14.15;36.84
20889;BME280;10604;51.976;7.594;2022-12-10T00:46:00;100049.59;;;14.12;37.59
20889;BME280;10604;51.976;7.594;2022-12-10T00:48:26;100041.03;;;14.23;37.39
20889;BME280;10604;51.976;7.594;2022-12-10T00:51:05;100046.84;;;14.29;37.59
20889;BME280;10604;51.976;7.594;2022-12-10T00:53:32;100047.56;;;14.48;37.11
20889;BME280;10604;51.976;7.594;2022-12-10T00:55:58;100051.31;;;14.44;37.51
20889;BME280;10604;51.976;7.594;2022-12-10T00:58:27;100053.72;;;14.33;37.83
20889;BME280;10604;51.976;7.594;2022-12-10T01:00:52;100049.41;;;14.15;38.49
20889;BME280;10604;51.976;7.594;2022-12-10T01:03:18;100048.75;;;14.11;38.96
20889;BME280;10604;51.976;7.594;2022-12-10T01:05:43;100049.91;;;14.37;38.10
20889;BME280;10604;51.976;7.594;2022-12-10T01:08:08;100047.03;;;14.26;38.51
20889;BME280;10604;51.976;7.594;2022-12-10T01:10:34;100048.41;;;14.33;38.13
20889;BME280;10604;51.976;7.594;2022-12-10T01:12:59;100057.81;;;14.55;37.71
20889;BME280;10604;51.976;7.594;2022-12-10T01:15:26;100047.00;;;14.58;37.55
20889;BME280;10604;51.976;7.594;2022-12-10T01:17:51;100061.69;;;14.49;37.98
20889;BME280;10604;51.976;7.594;2022-12-10T01:20:16;100053.19;;;14.42;37.75
20889;BME280;10604;51.976;7.594;2022-12-10T01:22:42;100062.44;;;14.51;38.05
20889;BME280;10604;51.976;7.594;2022-12-10T01:25:08;100055.09;;;14.40;36.77
20889;BME280;10604;51.976;7.594;2022-12-10T01:27:33;100058.00;;;14.20;35.37
20889;BME280;10604;51.976;7.594;2022-12-10T01:29:58;100068.78;;;14.48;35.95
20889;BME280;10604;51.976;7.594;2022-12-10T01:32:24;100066.22;;;14.63;36.59
20889;BME280;10604;51.976;7.594;2022-12-10T01:34:49;100069.59;;;14.65;36.52
20889;BME280;10604;51.976;7.594;2022-12-10T01:37:14;100071.91;;;14.71;36.77
20889;BME280;10604;51.976;7.594;2022-12-10T01:39:40;100070.28;;;14.84;36.09
20889;BME280;10604;51.976;7.594;2022-12-10T01:42:05;100075.91;;;14.78;36.49
20889;BME280;10604;51.976;7.594;2022-12-10T01:46:58;100069.44;;;14.68;36.94
20889;BME280;10604;51.976;7.594;2022-12-10T01:49:26;100074.00;;;14.34;35.04
20889;BME280;10604;51.976;7.594;2022-12-10T01:51:56;100071.50;;;14.31;36.09
20889;BME280;10604;51.976;7.594;2022-12-10T01:54:26;100072.25;;;14.65;35.97
20889;BME280;10604;51.976;7.594;2022-12-10T01:57:00;100082.25;;;14.91;35.25
20889;BME280;10604;51.976;7.594;2022-12-10T01:59:26;100075.44;;;15.01;34.30
20889;BME280;10604;51.976;7.594;2022-12-10T02:13:10;100092.53;;;15.11;35.86
20889;BME280;10604;51.976;7.594;2022-12-10T02:15:52;100091.94;;;15.06;36.21
20889;BME280;10604;51.976;7.594;2022-12-10T02:18:24;100090.88;;;14.49;35.42
20889;BME280;10604;51.976;7.594;2022-12-10T02:20:56;100084.13;;;14.89;35.80
20889;BME280;10604;51.976;7.594;2022-12-10T02:23:43;100087.19;;;14.97;34.15
20889;BME280;10604;51.976;7.594;2022-12-10T02:26:15;100087.19;;;14.97;34.91
20889;BME280;10604;51.976;7.594;2022-12-10T02:28:52;100083.94;;;14.92;35.87
20889;BME280;10604;51.976;7.594;2022-12-10T02:31:30;100081.88;;;14.97;35.52
20889;BME280;10604;51.976;7.594;2022-12-10T02:33:58;100078.94;;;15.02;36.06
20889;BME280;10604;51.976;7.594;2022-12-10T02:36:29;100086.94;;;15.16;35.87
20889;BME280;10604;51.976;7.594;2022-12-10T02:38:57;100084.94;;;15.05;35.83
20889;BME280;10604;51.976;7.594;2022-12-10T02:41:30;100090.41;;;15.02;36.40
20889;BME280;10604;51.976;7.594;2022-12-10T02:43:58;100083.94;;;14.92;36.01
20889;BME280;10604;51.976;7.594;2022-12-10T02:46:27;100074.06;;;14.94;35.86
20889;BME280;10604;51.976;7.594;2022-12-10T02:48:56;100082.28;;;14.60;35.11
20889;BME280;10604;51.976;7.594;2022-12-10T02:51:23;100083.38;;;14.71;35.30
20889;BME280;10604;51.976;7.594;2022-12-10T02:54:05;100074.38;;;14.89;34.16
20889;BME280;10604;51.976;7.594;2022-12-10T02:56:40;100085.84;;;14.90;35.81
20889;BME280;10604;51.976;7.594;2022-12-10T03:04:23;100078.28;;;14.98;35.44
20889;BME280;10604;51.976;7.594;2022-12-10T03:06:53;100069.44;;;14.68;35.30
20889;BME280;10604;51.976;7.594;2022-12-10T03:09:28;100079.03;;;14.23;36.34
20889;BME280;10604;51.976;7.594;2022-12-10T03:12:00;100073.31;;;14.46;35.36
20889;BME280;10604;51.976;7.594;2022-12-10T03:14:31;100073.56;;;14.58;35.25
20889;BME280;10604;51.976;7.594;2022-12-10T03:16:59;100073.25;;;14.48;35.03
20889;BME280;10604;51.976;7.594;2022-12-10T03:19:30;100071.88;;;14.41;34.97
20889;BME280;10604;51.976;7.594;2022-12-10T03:21:59;100078.47;;;14.79;34.93
20889;BME280;10604;51.976;7.594;2022-12-10T03:24:27;100075.53;;;14.70;35.80
20889;BME280;10604;51.976;7.594;2022-12-10T03:26:52;100075.91;;;14.78;35.33
20889;BME280;10604;51.976;7.594;2022-12-10T03:29:27;100076.72;;;14.94;34.86
20889;BME280;10604;51.976;7.594;2022-12-10T03:31:55;100080.69;;;14.87;34.82
20889;BME280;10604;51.976;7.594;2022-12-10T03:34:22;100079.44;;;15.08;34.78
20889;BME280;10604;51.976;7.594;2022-12-10T03:36:48;100076.19;;;15.03;35.32
20889;BME280;10604;51.976;7.594;2022-12-10T03:39:15;100077.56;;;15.10;35.74
20889;BME280;10604;51.976;7.594;2022-12-10T03:41:41;100074.31;;;15.05;35.09
20889;BME280;10604;51.976;7.594;2022-12-10T03:44:06;100078.63;;;14.92;34.72
20889;BME280;10604;51.976;7.594;2022-12-10T03:46:31;100069.88;;;15.06;34.09
20889;BME280;10604;51.976;7.594;2022-12-10T03:48:59;100089.06;;;14.95;34.95
20889;BME280;10604;51.976;7.594;2022-12-10T03:51:24;100077.59;;;15.24;34.44
20889;BME280;10604;51.976;7.594;2022-12-10T03:53:50;100087.44;;;15.22;33.50
20889;BME280;10604;51.976;7.594;2022-12-10T03:56:16;100092.16;;;15.47;33.85
20889;BME280;10604;51.976;7.594;2022-12-10T03:58:42;100082.81;;;15.26;33.03
20889;BME280;10604;51.976;7.594;2022-12-10T04:01:07;100079.88;;;14.24;33.86
20889;BME280;10604;51.976;7.594;2022-12-10T04:03:37;100089.13;;;14.64;33.62
20889;BME280;10604;51.976;7.594;2022-12-10T04:06:05;100087.94;;;14.69;33.50
20889;BME280;10604;51.976;7.594;2022-12-10T04:08:31;100086.81;;;15.03;33.50
20889;BME280;10604;51.976;7.594;2022-12-10T04:11:05;100087.63;;;15.19;33.09
20889;BME280;10604;51.976;7.594;2022-12-10T04:13:35;100091.25;;;15.18;33.25
20889;BME280;10604;51.976;7.594;2022-12-10T04:16:19;100096.97;;;14.97;34.22
20889;BME280;10604;51.976;7.594;2022-12-10T04:18:58;100102.41;;;15.09;34.17
20889;BME280;10604;51.976;7.594;2022-12-10T04:21:24;100092.59;;;15.25;33.13
20889;BME280;10604;51.976;7.594;2022-12-10T04:24:09;100104.13;;;15.10;34.23
20889;BME280;10604;51.976;7.594;2022-12-10T04:26:54;100103.50;;;14.28;33.83
20889;BME280;10604;51.976;7.594;2022-12-10T04:29:26;100100.09;;;14.73;34.26
20889;BME280;10604;51.976;7.594;2022-12-10T04:31:52;100104.59;;;14.87;34.27
20889;BME280;10604;51.976;7.594;2022-12-10T04:34:18;100104.94;;;14.97;34.22
20889;BME280;10604;51.976;7.594;2022-12-10T04:36:43;100106.00;;;15.08;34.39
20889;BME280;10604;51.976;7.594;2022-12-10T04:39:09;100099.84;;;14.92;34.73
20889;BME280;10604;51.976;7.594;2022-12-10T04:41:41;100094.56;;;14.92;35.02
20889;BME280;10604;51.976;7.594;2022-12-10T04:44:07;100096.91;;;15.12;34.27
20889;BME280;10604;51.976;7.594;2022-12-10T04:46:33;100097.31;;;14.91;34.15
20889;BME280;10604;51.976;7.594;2022-12-10T04:48:58;100096.34;;;14.62;33.70
20889;BME280;10604;51.976;7.594;2022-12-10T04:51:24;100098.50;;;14.85;33.20
20889;BME280;10604;51.976;7.594;2022-12-10T04:53:49;100101.75;;;15.06;33.89
20889;BME280;10604;51.976;7.594;2022-12-10T04:56:14;100101.81;;;15.04;34.13
20889;BME280;10604;51.976;7.594;2022-12-10T04:58:40;100098.41;;;15.02;34.07
20889;BME280;10604;51.976;7.594;2022-12-10T05:01:07;100098.97;;;15.07;34.26
20889;BME280;10604;51.976;7.594;2022-12-10T05:03:34;100095.28;;;14.80;34.26
20889;BME280;10604;51.976;7.594;2022-12-10T05:06:01;100093.19;;;14.39;34.22
20889;BME280;10604;51.976;7.594;2022-12-10T05:08:27;100095.50;;;14.45;33.83
20889;BME280;10604;51.976;7.594;2022-12-10T05:10:52;100088.25;;;14.79;33.25
20889;BME280;10604;51.976;7.594;2022-12-10T05:13:18;100096.00;;;14.68;32.51
20889;BME280;10604;51.976;7.594;2022-12-10T05:15:43;100089.91;;;14.66;33.01
20889;BME280;10604;51.976;7.594;2022-12-10T05:18:08;100091.31;;;14.87;33.74
20889;BME280;10604;51.976;7.594;2022-12-10T05:20:33;100095.91;;;14.99;33.84
20889;BME280;10604;51.976;7.594;2022-12-10T05:22:59;100095.59;;;15.19;32.86
20889;BME280;10604;51.976;7.594;2022-12-10T05:25:43;100098.06;;;15.22;33.37
20889;BME280;10604;51.976;7.594;2022-12-10T05:28:22;100091.78;;;15.09;32.74
20889;BME280;10604;51.976;7.594;2022-12-10T05:30:47;100098.44;;;15.16;32.43
20889;BME280;10604;51.976;7.594;2022-12-10T05:33:13;100106.16;;;14.91;33.42
20889;BME280;10604;51.976;7.594;2022-12-10T05:35:38;100106.16;;;14.91;33.27
20889;BME280;10604;51.976;7.594;2022-12-10T05:38:04;100110.31;;;14.95;33.11
20889;BME280;10604;51.976;7.594;2022-12-10T05:40:33;100108.75;;;14.77;32.97
20889;BME280;10604;51.976;7.594;2022-12-10T05:42:59;100107.28;;;14.71;33.20
20889;BME280;10604;51.976;7.594;2022-12-10T05:45:25;100107.31;;;15.01;32.71
20889;BME280;10604;51.976;7.594;2022-12-10T05:47:50;100105.94;;;15.24;33.29
20889;BME280;10604;51.976;7.594;2022-12-10T05:50:16;100098.44;;;15.16;33.01
20889;BME280;10604;51.976;7.594;2022-12-10T05:52:41;100111.31;;;15.08;32.95
20889;BME280;10604;51.976;7.594;2022-12-10T05:55:07;100109.97;;;15.01;33.21
20889;BME280;10604;51.976;7.594;2022-12-10T05:57:32;100116.88;;;14.74;32.81
20889;BME280;10604;51.976;7.594;2022-12-10T05:59:58;100118.09;;;14.68;32.91
20889;BME280;10604;51.976;7.594;2022-12-10T06:02:23;100123.03;;;14.90;33.24
20889;BME280;10604;51.976;7.594;2022-12-10T06:04:48;100120.38;;;14.59;33.21
20889;BME280;10604;51.976;7.594;2022-12-10T06:07:14;100115.56;;;14.81;33.54
20889;BME280;10604;51.976;7.594;2022-12-10T06:09:39;100121.81;;;14.96;33.44
20889;BME280;10604;51.976;7.594;2022-12-10T06:12:05;100120.06;;;15.10;33.74
20889;BME280;10604;51.976;7.594;2022-12-10T06:14:30;100127.59;;;15.02;33.34
20889;BME280;10604;51.976;7.594;2022-12-10T06:16:55;100122.16;;;14.27;33.62
20889;BME280;10604;51.976;7.594;2022-12-10T06:19:21;100115.75;;;14.78;33.29
20889;BME280;10604;51.976;7.594;2022-12-10T06:21:46;100127.78;;;14.99;33.42
20889;BME280;10604;51.976;7.594;2022-12-10T06:24:11;100127.44;;;15.05;33.18
20889;BME280;10604;51.976;7.594;2022-12-10T06:26:37;100117.81;;;14.73;33.43
20889;BME280;10604;51.976;7.594;2022-12-10T06:29:02;100124.56;;;14.31;33.38
20889;BME280;10604;51.976;7.594;2022-12-10T06:31:29;100123.69;;;14.78;33.18
20889;BME280;10604;51.976;7.594;2022-12-10T06:33:55;100124.53;;;14.94;32.67
20889;BME280;10604;51.976;7.594;2022-12-10T06:36:20;100121.31;;;14.89;32.82
20889;BME280;10604;51.976;7.594;2022-12-10T06:38:46;100131.56;;;14.95;33.02
20889;BME280;10604;51.976;7.594;2022-12-10T06:41:13;100125.91;;;15.01;32.95
20889;BME280;10604;51.976;7.594;2022-12-10T06:43:39;100128.63;;;15.00;32.98
20889;BME280;10604;51.976;7.594;2022-12-10T06:46:13;100123.66;;;15.09;32.98
20889;BME280;10604;51.976;7.594;2022-12-10T06:48:39;100130.03;;;14.91;33.03
20889;BME280;10604;51.976;7.594;2022-12-10T06:51:05;100138.59;;;14.96;33.49
20889;BME280;10604;51.976;7.594;2022-12-10T06:53:33;100125.72;;;15.04;32.94
20889;BME280;10604;51.976;7.594;2022-12-10T06:56:00;100127.31;;;14.77;33.52
20889;BME280;10604;51.976;7.594;2022-12-10T06:58:29;100137.03;;;14.92;33.35
20889;BME280;10604;51.976;7.594;2022-12-10T07:01:02;100135.22;;;14.63;33.21
20889;BME280;10604;51.976;7.594;2022-12-10T07:03:28;100137.78;;;14.48;33.45
20889;BME280;10604;51.976;7.594;2022-12-10T07:05:57;100153.69;;;14.80;33.52
20889;BME280;10604;51.976;7.594;2022-12-10T07:08:22;100152.31;;;14.88;33.48
20889;BME280;10604;51.976;7.594;2022-12-10T07:10:48;100146.72;;;14.93;33.56
20889;BME280;10604;51.976;7.594;2022-12-10T07:13:13;100146.34;;;14.54;34.44
20889;BME280;10604;51.976;7.594;2022-12-10T07:15:39;100149.44;;;14.62;34.09
20889;BME280;10604;51.976;7.594;2022-12-10T07:18:04;100155.66;;;14.76;33.68
20889;BME280;10604;51.976;7.594;2022-12-10T07:20:30;100156.59;;;14.91;33.31
20889;BME280;10604;51.976;7.594;2022-12-10T07:22:55;100151.16;;;14.63;33.82
20889;BME280;10604;51.976;7.594;2022-12-10T07:25:20;100163.34;;;14.49;33.62
20889;BME280;10604;51.976;7.594;2022-12-10T07:27:46;100147.19;;;14.38;33.58
20889;BME280;10604;51.976;7.594;2022-12-10T07:30:11;100155.66;;;14.61;33.46
20889;BME280;10604;51.976;7.594;2022-12-10T07:32:37;100154.75;;;14.62;33.40
20889;BME280;10604;51.976;7.594;2022-12-10T07:35:02;100157.13;;;14.66;33.42
20889;BME280;10604;51.976;7.594;2022-12-10T07:37:27;100168.44;;;14.54;33.17
20889;BME280;10604;51.976;7.594;2022-12-10T07:39:53;100164.50;;;14.45;33.45
20889;BME280;10604;51.976;7.594;2022-12-10T07:42:18;100171.16;;;14.53;33.71
20889;BME280;10604;51.976;7.594;2022-12-10T07:44:44;100176.63;;;14.49;33.81
20889;BME280;10604;51.976;7.594;2022-12-10T07:47:09;100172.47;;;14.28;34.12
20889;BME280;10604;51.976;7.594;2022-12-10T07:49:34;100176.06;;;14.11;34.12
20889;BME280;10604;51.976;7.594;2022-12-10T07:52:00;100169.84;;;13.95;34.58
20889;BME280;10604;51.976;7.594;2022-12-10T07:54:25;100173.56;;;14.08;34.42
20889;BME280;10604;51.976;7.594;2022-12-10T07:56:51;100168.34;;;14.23;34.33
20889;BME280;10604;51.976;7.594;2022-12-10T07:59:16;100170.03;;;14.08;34.05
20889;BME280;10604;51.976;7.594;2022-12-10T08:01:42;100176.72;;;14.15;34.29
20889;BME280;10604;51.976;7.594;2022-12-10T08:04:07;100169.88;;;14.11;34.02
20889;BME280;10604;51.976;7.594;2022-12-10T08:06:32;100166.63;;;14.22;34.01
20889;BME280;10604;51.976;7.594;2022-12-10T08:08:59;100176.38;;;14.21;34.27
20889;BME280;10604;51.976;7.594;2022-12-10T08:11:24;100181.09;;;14.16;34.58
20889;BME280;10604;51.976;7.594;2022-12-10T08:13:51;100175.19;;;14.11;34.11
20889;BME280;10604;51.976;7.594;2022-12-10T08:16:19;100185.13;;;14.23;34.08
20889;BME280;10604;51.976;7.594;2022-12-10T08:18:46;100194.69;;;14.10;34.66
20889;BME280;10604;51.976;7.594;2022-12-10T08:21:19;100185.31;;;14.20;34.29
20889;BME280;10604;51.976;7.594;2022-12-10T08:23:45;100196.06;;;14.17;34.49
20889;BME280;10604;51.976;7.594;2022-12-10T08:26:19;100186.69;;;14.27;34.48
20889;BME280;10604;51.976;7.594;2022-12-10T08:28:46;100194.28;;;14.50;34.05
20889;BME280;10604;51.976;7.594;2022-12-10T08:31:13;100197.28;;;14.11;34.64
20889;BME280;10604;51.976;7.594;2022-12-10T08:33:39;100199.84;;;14.13;34.56
20889;BME280;10604;51.976;7.594;2022-12-10T08:36:07;100199.75;;;14.15;34.85
20889;BME280;10604;51.976;7.594;2022-12-10T08:38:34;100207.59;;;14.33;34.62
20889;BME280;10604;51.976;7.594;2022-12-10T08:41:14;100212.13;;;14.14;34.69
20889;BME280;10604;51.976;7.594;2022-12-10T08:43:41;100206.53;;;14.20;34.54
20889;BME280;10604;51.976;7.594;2022-12-10T08:46:11;100214.91;;;14.28;34.31
20889;BME280;10604;51.976;7.594;2022-12-10T08:48:40;100225.38;;;14.31;34.45
20889;BME280;10604;51.976;7.594;2022-12-10T08:51:06;100223.19;;;14.39;34.49
20889;BME280;10604;51.976;7.594;2022-12-10T08:53:33;100219.28;;;14.46;34.40
20889;BME280;10604;51.976;7.594;2022-12-10T08:55:58;100221.78;;;14.32;33.81
20889;BME280;10604;51.976;7.594;2022-12-10T08:58:24;100225.53;;;14.45;34.48
20889;BME280;10604;51.976;7.594;2022-12-10T09:00:49;100236.91;;;14.47;34.23
20889;BME280;10604;51.976;7.594;2022-12-10T09:03:15;100231.59;;;14.47;34.39
20889;BME280;10604;51.976;7.594;2022-12-10T09:05:41;100236.72;;;14.50;34.87
20889;BME280;10604;51.976;7.594;2022-12-10T09:08:06;100234.53;;;14.59;34.71
20889;BME280;10604;51.976;7.594;2022-12-10T09:10:32;100240.50;;;14.46;34.38
20889;BME280;10604;51.976;7.594;2022-12-10T09:12:57;100241.88;;;14.54;34.38
20889;BME280;10604;51.976;7.594;2022-12-10T09:15:23;100243.28;;;14.76;34.29
20889;BME280;10604;51.976;7.594;2022-12-10T09:17:48;100249.19;;;14.97;34.29
20889;BME280;10604;51.976;7.594;2022-12-10T09:20:13;100255.88;;;14.88;34.45
20889;BME280;10604;51.976;7.594;2022-12-10T09:22:44;100248.78;;;14.89;33.93
20889;BME280;10604;51.976;7.594;2022-12-10T09:25:09;100262.47;;;14.97;33.87
20889;BME280;10604;51.976;7.594;2022-12-10T09:27:35;100255.97;;;15.18;33.73
20889;BME280;10604;51.976;7.594;2022-12-10T09:30:03;100252.69;;;15.13;33.48
20889;BME280;10604;51.976;7.594;2022-12-10T09:32:29;100267.25;;;15.06;33.88
20889;BME280;10604;51.976;7.594;2022-12-10T09:34:54;100267.69;;;15.14;33.60
20889;BME280;10604;51.976;7.594;2022-12-10T09:37:20;100258.34;;;15.07;33.10
20889;BME280;10604;51.976;7.594;2022-12-10T09:39:46;100271.38;;;15.12;33.30
20889;BME280;10604;51.976;7.594;2022-12-10T09:47:36;100263.66;;;15.07;33.87
20889;BME280;10604;51.976;7.594;2022-12-10T09:50:19;100255.97;;;15.18;33.85
20889;BME280;10604;51.976;7.594;2022-12-10T09:52:46;100260.72;;;15.43;33.55
20889;BME280;10604;51.976;7.594;2022-12-10T09:55:26;100254.13;;;15.35;33.27
20889;BME280;10604;51.976;7.594;2022-12-10T09:57:55;100251.63;;;15.47;33.49
20889;BME280;10604;51.976;7.594;2022-12-10T10:00:25;100251.31;;;15.53;33.02
20889;BME280;10604;51.976;7.594;2022-12-10T10:02:57;100255.75;;;15.53;32.55
20889;BME280;10604;51.976;7.594;2022-12-10T10:05:38;100243.84;;;15.28;32.67
20889;BME280;10604;51.976;7.594;2022-12-10T10:08:13;100247.28;;;15.31;32.78
20889;BME280;10604;51.976;7.594;2022-12-10T10:10:40;100244.25;;;15.37;32.75
20889;BME280;10604;51.976;7.594;2022-12-10T10:15:35;100245.56;;;15.29;33.15
20889;BME280;10604;51.976;7.594;2022-12-10T10:18:11;100249.53;;;15.68;32.41
20889;BME280;10604;51.976;7.594;2022-12-10T10:20:39;100242.75;;;15.92;32.42
20889;BME280;10604;51.976;7.594;2022-12-10T10:23:05;100240.31;;;16.03;32.66
20889;BME280;10604;51.976;7.594;2022-12-10T10:25:30;100246.41;;;16.05;31.98
20889;BME280;10604;51.976;7.594;2022-12-10T10:27:56;100239.16;;;15.93;32.31
20889;BME280;10604;51.976;7.594;2022-12-10T10:30:22;100249.81;;;16.22;32.59
20889;BME280;10604;51.976;7.594;2022-12-10T10:32:55;100246.97;;;16.11;32.82
20889;BME280;10604;51.976;7.594;2022-12-10T10:35:42;100255.94;;;16.38;31.58
20889;BME280;10604;51.976;7.594;2022-12-10T10:38:15;100253.16;;;16.11;31.71
20889;BME280;10604;51.976;7.594;2022-12-10T10:40:48;100254.03;;;16.40;31.75
20889;BME280;10604;51.976;7.594;2022-12-10T10:43:19;100250.22;;;16.44;31.85
20889;BME280;10604;51.976;7.594;2022-12-10T10:45:51;100253.53;;;16.05;32.25
20889;BME280;10604;51.976;7.594;2022-12-10T10:48:20;100254.41;;;16.05;31.89
20889;BME280;10604;51.976;7.594;2022-12-10T10:50:54;100256.81;;;15.94;31.68
20889;BME280;10604;51.976;7.594;2022-12-10T10:58:55;100261.41;;;15.47;33.10
20889;BME280;10604;51.976;7.594;2022-12-10T11:01:24;100258.19;;;15.10;33.82
20889;BME280;10604;51.976;7.594;2022-12-10T11:03:55;100259.69;;;15.46;33.33
20889;BME280;10604;51.976;7.594;2022-12-10T11:06:22;100256.38;;;15.72;33.13
20889;BME280;10604;51.976;7.594;2022-12-10T11:08:48;100262.75;;;16.28;32.77
20889;BME280;10604;51.976;7.594;2022-12-10T11:11:22;100257.84;;;16.64;32.94
20889;BME280;10604;51.976;7.594;2022-12-10T11:13:49;100271.31;;;16.19;32.70
20889;BME280;10604;51.976;7.594;2022-12-10T11:18:42;100260.34;;;15.19;33.85
20889;BME280;10604;51.976;7.594;2022-12-10T11:23:56;100254.00;;;16.12;32.67
20889;BME280;10604;51.976;7.594;2022-12-10T11:29:22;100241.28;;;16.31;32.82
20889;BME280;10604;51.976;7.594;2022-12-10T11:35:10;100244.84;;;15.87;32.60
20889;BME280;10604;51.976;7.594;2022-12-10T11:37:43;100253.34;;;16.36;32.22
20889;BME280;10604;51.976;7.594;2022-12-10T11:40:28;100252.47;;;15.63;33.12
20889;BME280;10604;51.976;7.594;2022-12-10T11:42:59;100250.56;;;15.95;33.31
20889;BME280;10604;51.976;7.594;2022-12-10T11:51:02;100256.69;;;16.54;32.39
20889;BME280;10604;51.976;7.594;2022-12-10T11:56:43;100259.75;;;16.76;32.61
20889;BME280;10604;51.976;7.594;2022-12-10T11:59:31;100259.13;;;16.15;32.50
20889;BME280;10604;51.976;7.594;2022-12-10T12:02:19;100271.91;;;16.38;32.91
20889;BME280;10604;51.976;7.594;2022-12-10T12:05:04;100275.03;;;15.86;33.92
20889;BME280;10604;51.976;7.594;2022-12-10T12:13:34;100272.41;;;15.41;35.01
20889;BME280;10604;51.976;7.594;2022-12-10T12:18:41;100277.38;;;16.21;33.83
20889;BME280;10604;51.976;7.594;2022-12-10T12:21:10;100272.91;;;16.21;33.60
20889;BME280;10604;51.976;7.594;2022-12-10T12:23:41;100262.34;;;15.91;33.98
20889;BME280;10604;51.976;7.594;2022-12-10T12:26:13;100260.44;;;15.93;34.41
20889;BME280;10604;51.976;7.594;2022-12-10T12:29:17;100249.06;;;15.46;35.00
20889;BME280;10604;51.976;7.594;2022-12-10T12:31:35;100251.66;;;15.77;34.43
20889;BME280;10604;51.976;7.594;2022-12-10T12:34:16;100262.19;;;16.23;34.06
20889;BME280;10604;51.976;7.594;2022-12-10T12:36:43;100259.03;;;15.72;34.33
20889;BME280;10604;51.976;7.594;2022-12-10T12:39:40;100256.31;;;15.12;34.54
20889;BME280;10604;51.976;7.594;2022-12-10T12:42:31;100261.69;;;14.95;35.51
20889;BME280;10604;51.976;7.594;2022-12-10T12:45:10;100264.69;;;15.20;34.98
20889;BME280;10604;51.976;7.594;2022-12-10T12:52:59;100273.44;;;15.22;35.71
20889;BME280;10604;51.976;7.594;2022-12-10T12:59:00;100280.78;;;14.86;35.62
20889;BME280;10604;51.976;7.594;2022-12-10T13:01:35;100276.13;;;15.68;34.95
20889;BME280;10604;51.976;7.594;2022-12-10T13:04:04;100278.91;;;14.88;35.51
20889;BME280;10604;51.976;7.594;2022-12-10T13:06:35;100273.09;;;14.81;35.83
20889;BME280;10604;51.976;7.594;2022-12-10T13:19:25;100271.84;;;15.50;35.34
20889;BME280;10604;51.976;7.594;2022-12-10T13:34:45;100281.81;;;14.99;35.19
20889;BME280;10604;51.976;7.594;2022-12-10T13:37:15;100272.41;;;15.09;35.05
20889;BME280;10604;51.976;7.594;2022-12-10T13:40:02;100284.28;;;15.65;34.06
20889;BME280;10604;51.976;7.594;2022-12-10T13:42:38;100269.63;;;15.58;34.40
20889;BME280;10604;51.976;7.594;2022-12-10T13:45:24;100275.78;;;15.43;34.38
20889;BME280;10604;51.976;7.594;2022-12-10T13:47:52;100281.06;;;15.90;33.93
20889;BME280;10604;51.976;7.594;2022-12-10T13:50:35;100285.06;;;15.51;34.56
20889;BME280;10604;51.976;7.594;2022-12-10T13:56:02;100290.91;;;15.58;34.78
20889;BME280;10604;51.976;7.594;2022-12-10T14:07:34;100301.97;;;15.96;33.71
20889;BME280;10604;51.976;7.594;2022-12-10T14:10:16;100295.53;;;15.70;34.42
20889;BME280;10604;51.976;7.594;2022-12-10T14:12:45;100302.41;;;15.11;34.93
20889;BME280;10604;51.976;7.594;2022-12-10T14:15:20;100305.44;;;14.72;35.43
20889;BME280;10604;51.976;7.594;2022-12-10T14:17:50;100310.19;;;15.30;34.69
20889;BME280;10604;51.976;7.594;2022-12-10T14:20:33;100317.97;;;15.49;34.86
20889;BME280;10604;51.976;7.594;2022-12-10T14:23:28;100328.97;;;14.96;35.22
20889;BME280;10604;51.976;7.594;2022-12-10T14:26:15;100321.50;;;15.02;34.82
20889;BME280;10604;51.976;7.594;2022-12-10T14:28:57;100323.03;;;14.58;35.78
20889;BME280;10604;51.976;7.594;2022-12-10T14:31:31;100320.22;;;15.09;35.27
20889;BME280;10604;51.976;7.594;2022-12-10T14:34:01;100313.72;;;15.31;35.10
20889;BME280;10604;51.976;7.594;2022-12-10T14:36:37;100311.13;;;15.45;34.64
20889;BME280;10604;51.976;7.594;2022-12-10T14:39:12;100312.41;;;15.06;35.14
20889;BME280;10604;51.976;7.594;2022-12-10T14:41:40;100301.53;;;15.42;34.79
20889;BME280;10604;51.976;7.594;2022-12-10T14:44:06;100306.50;;;15.01;35.23
20889;BME280;10604;51.976;7.594;2022-12-10T14:46:31;100308.41;;;15.31;35.24